Time;durP1;ratioP1;P1;durP2;ratioP2;P2;SDS_P1;SDS_P2;PMS_P1;PMS_P2;Temp;Humidity;BMP_temperature;BMP_pressure;BME280_temperature;BME280_humidity;BME280_pressure;Samples;Min_cycle;Max_cycle;Signal;HPM_P1;HPM_P2
2022/07/17 00:00:19;;;;;;;0.00;0.00;;;23.00;45.50;;;;;;5097313;28;20032;-74
2022/07/17 00:02:47;;;;;;;0.10;0.10;;;23.00;45.60;;;;;;5114918;28;20024;-74
2022/07/17 00:05:14;;;;;;;0.00;0.00;;;23.00;46.20;;;;;;5115238;28;20019;-73
2022/07/17 00:07:40;;;;;;;0.00;0.00;;;23.00;46.40;;;;;;5115466;28;20028;-74
2022/07/17 00:10:07;;;;;;;0.00;0.00;;;23.00;46.10;;;;;;5097334;28;20123;-74
2022/07/17 00:12:33;;;;;;;0.00;0.00;;;23.00;46.20;;;;;;5115598;28;20076;-74
2022/07/17 00:14:59;;;;;;;0.00;0.00;;;23.00;45.70;;;;;;5115976;28;20028;-74
2022/07/17 00:17:26;;;;;;;0.00;0.00;;;23.00;47.00;;;;;;5097509;28;20088;-73
2022/07/17 00:19:52;;;;;;;0.00;0.00;;;23.00;47.50;;;;;;5116077;28;20522;-73
2022/07/17 00:22:18;;;;;;;0.00;0.00;;;23.00;48.10;;;;;;5115478;28;20051;-74
2022/07/17 00:24:44;;;;;;;0.00;0.00;;;23.00;48.40;;;;;;5115522;28;20462;-74
2022/07/17 00:27:10;;;;;;;0.00;0.00;;;23.10;48.00;;;;;;5098008;28;20108;-73
2022/07/17 00:29:36;;;;;;;0.00;0.00;;;23.10;48.50;;;;;;5116125;28;20026;-74
2022/07/17 00:32:02;;;;;;;0.00;0.00;;;23.20;48.90;;;;;;5116113;27;20027;-74
2022/07/17 00:34:28;;;;;;;0.00;0.00;;;23.10;49.30;;;;;;5114788;28;20027;-73
2022/07/17 00:36:54;;;;;;;0.00;0.00;;;23.60;49.70;;;;;;5096122;28;20027;-74
2022/07/17 00:39:20;;;;;;;0.25;0.25;;;24.20;49.40;;;;;;5096504;28;20046;-74
2022/07/17 00:41:46;;;;;;;0.00;0.00;;;25.00;48.00;;;;;;5096847;28;20470;-73
2022/07/17 00:44:12;;;;;;;0.00;0.00;;;25.90;47.40;;;;;;5095481;28;20029;-73
2022/07/17 00:46:40;;;;;;;0.00;0.00;;;27.00;46.10;;;;;;5087870;28;20024;-73
2022/07/17 00:49:06;;;;;;;0.00;0.00;;;28.00;44.00;;;;;;5109147;27;20023;-75
2022/07/17 00:51:33;;;;;;;0.00;0.00;;;28.60;42.80;;;;;;5117134;27;20064;-75
2022/07/17 00:54:01;;;;;;;0.00;0.00;;;29.10;40.90;;;;;;5134410;27;20027;-75
2022/07/17 00:56:28;;;;;;;0.00;0.00;;;29.60;41.10;;;;;;5104431;27;20119;-75
2022/07/17 00:58:55;;;;;;;0.00;0.00;;;30.10;40.20;;;;;;5110016;27;20027;-74
2022/07/17 01:01:21;;;;;;;0.00;0.00;;;30.80;39.60;;;;;;5114746;28;20103;-75
2022/07/17 01:03:47;;;;;;;0.63;0.63;;;31.50;38.80;;;;;;5112910;28;20023;-75
2022/07/17 01:06:14;;;;;;;0.00;0.00;;;31.80;38.00;;;;;;5111703;27;20042;-74
2022/07/17 01:08:40;;;;;;;0.00;0.00;;;32.50;38.90;;;;;;5114192;28;20016;-75
2022/07/17 01:11:09;;;;;;;0.00;0.00;;;33.30;38.50;;;;;;5096297;28;20027;-75
2022/07/17 01:13:35;;;;;;;0.00;0.00;;;33.60;37.10;;;;;;5096322;28;20039;-75
2022/07/17 01:16:02;;;;;;;0.00;0.00;;;34.20;35.90;;;;;;5084060;28;20027;-74
2022/07/17 01:18:28;;;;;;;0.00;0.00;;;34.00;35.30;;;;;;5094428;28;20023;-75
2022/07/17 01:20:54;;;;;;;0.00;0.00;;;34.50;34.60;;;;;;5114710;28;20035;-75
2022/07/17 01:23:20;;;;;;;0.00;0.00;;;34.60;34.30;;;;;;5096091;28;20030;-74
2022/07/17 01:25:47;;;;;;;0.00;0.00;;;35.00;34.60;;;;;;5114775;28;20454;-75
2022/07/17 01:28:13;;;;;;;1.75;1.65;;;34.80;33.80;;;;;;5114416;28;20076;-74
2022/07/17 01:30:51;;;;;;;0.00;0.00;;;34.80;34.10;;;;;;5106314;28;20024;-75
2022/07/17 01:33:18;;;;;;;0.00;0.00;;;34.10;35.20;;;;;;5097401;28;20024;-75
2022/07/17 01:35:45;;;;;;;0.00;0.00;;;34.20;35.00;;;;;;5092987;28;20020;-75
2022/07/17 01:38:11;;;;;;;0.85;0.85;;;33.30;37.30;;;;;;5112220;28;20073;-74
2022/07/17 01:40:37;;;;;;;0.00;0.00;;;32.30;37.20;;;;;;5092663;28;20051;-74
2022/07/17 01:43:03;;;;;;;0.00;0.00;;;32.00;38.50;;;;;;5095708;28;20106;-74
2022/07/17 01:45:29;;;;;;;0.20;0.20;;;31.80;41.20;;;;;;5113909;28;20024;-74
2022/07/17 01:47:55;;;;;;;0.10;0.10;;;32.00;38.90;;;;;;5107575;28;20016;-74
2022/07/17 01:50:21;;;;;;;0.05;0.05;;;32.30;39.10;;;;;;5093536;28;20471;-75
2022/07/17 01:52:47;;;;;;;0.00;0.00;;;32.60;35.50;;;;;;5093448;28;20024;-75
2022/07/17 01:55:15;;;;;;;0.00;0.00;;;33.00;34.40;;;;;;5093527;28;20058;-75
2022/07/17 01:57:42;;;;;;;0.00;0.00;;;33.40;35.90;;;;;;5075207;28;20446;-75
2022/07/17 02:00:14;;;;;;;0.95;0.95;;;33.60;33.70;;;;;;5093378;28;20028;-75
2022/07/17 02:02:40;;;;;;;0.00;0.00;;;34.00;35.40;;;;;;5093429;28;20012;-75
2022/07/17 02:05:07;;;;;;;0.00;0.00;;;34.80;31.70;;;;;;5092959;28;20023;-75
2022/07/17 02:07:34;;;;;;;1.08;0.85;;;35.30;30.50;;;;;;5092861;28;20012;-76
2022/07/17 02:10:01;;;;;;;0.00;0.00;;;35.50;28.70;;;;;;5074897;28;20059;-75
2022/07/17 02:12:27;;;;;;;2.58;2.35;;;34.80;32.90;;;;;;5074875;28;20043;-74
2022/07/17 02:14:53;;;;;;;0.22;0.20;;;34.40;33.10;;;;;;5074950;28;20028;-75
2022/07/17 02:17:19;;;;;;;0.00;0.00;;;34.60;34.00;;;;;;5093117;28;20024;-75
2022/07/17 02:19:45;;;;;;;0.10;0.10;;;35.80;32.60;;;;;;5074753;28;20028;-75
2022/07/17 02:22:11;;;;;;;0.00;0.00;;;36.10;32.70;;;;;;5093071;28;20035;-75
2022/07/17 02:24:37;;;;;;;2.95;2.40;;;36.60;32.60;;;;;;5093220;28;20055;-74
2022/07/17 02:27:03;;;;;;;4.13;1.67;;;37.20;30.10;;;;;;5074706;28;20052;-75
2022/07/17 02:29:29;;;;;;;1.08;1.08;;;36.40;29.30;;;;;;5074701;28;20025;-75
2022/07/17 02:31:55;;;;;;;8.35;7.75;;;37.00;30.50;;;;;;5093426;28;20023;-75
2022/07/17 02:34:21;;;;;;;0.80;0.80;;;37.70;31.00;;;;;;5093054;28;20032;-75
2022/07/17 02:36:47;;;;;;;0.00;0.00;;;38.90;29.20;;;;;;5074855;28;20078;-75
2022/07/17 02:39:13;;;;;;;0.00;0.00;;;38.90;27.70;;;;;;5074545;28;20458;-74
2022/07/17 02:41:39;;;;;;;1.58;0.68;;;38.60;27.50;;;;;;5074482;28;20055;-75
2022/07/17 02:44:05;;;;;;;0.00;0.00;;;37.60;27.90;;;;;;5074601;28;20028;-75
2022/07/17 02:46:34;;;;;;;0.10;0.00;;;37.80;28.80;;;;;;5093748;28;20028;-75
2022/07/17 02:49:00;;;;;;;0.00;0.00;;;37.80;27.80;;;;;;5094748;28;20024;-75
2022/07/17 02:51:26;;;;;;;0.45;0.20;;;37.80;26.70;;;;;;5094681;28;20023;-75
2022/07/17 02:53:52;;;;;;;0.00;0.00;;;37.70;26.20;;;;;;5095772;28;20028;-75
2022/07/17 02:56:18;;;;;;;0.00;0.00;;;37.70;26.80;;;;;;5095142;28;20028;-75
2022/07/17 02:58:44;;;;;;;0.00;0.00;;;38.30;26.90;;;;;;5094977;28;20027;-75
2022/07/17 03:01:10;;;;;;;0.00;0.00;;;39.40;26.50;;;;;;5114099;28;20028;-75
2022/07/17 03:03:36;;;;;;;0.45;0.45;;;38.80;24.80;;;;;;5113521;28;20061;-74
2022/07/17 03:06:02;;;;;;;0.00;0.00;;;38.00;25.60;;;;;;5113147;28;20019;-75
2022/07/17 03:08:28;;;;;;;0.00;0.00;;;37.80;26.40;;;;;;5113118;28;20015;-75
2022/07/17 03:10:54;;;;;;;0.00;0.00;;;38.30;26.40;;;;;;5113270;28;20034;-75
2022/07/17 03:13:20;;;;;;;0.00;0.00;;;38.70;24.90;;;;;;5107055;28;20088;-75
2022/07/17 03:15:46;;;;;;;0.00;0.00;;;38.90;24.20;;;;;;5093914;28;20429;-75
2022/07/17 03:18:12;;;;;;;0.10;0.10;;;38.50;24.40;;;;;;5117019;28;20035;-75
2022/07/17 03:20:38;;;;;;;0.00;0.00;;;37.40;24.90;;;;;;5116663;28;20035;-75
2022/07/17 03:23:04;;;;;;;1.95;1.48;;;37.90;24.60;;;;;;5117308;28;20461;-74
2022/07/17 03:25:30;;;;;;;0.00;0.00;;;37.80;25.20;;;;;;5098374;28;20024;-75
2022/07/17 03:27:57;;;;;;;0.00;0.00;;;38.10;24.70;;;;;;5116649;28;20020;-74
2022/07/17 03:30:23;;;;;;;0.00;0.00;;;37.90;25.20;;;;;;5098199;28;20516;-74
2022/07/17 03:32:49;;;;;;;0.05;0.05;;;38.70;24.80;;;;;;5091869;28;20415;-75
2022/07/17 03:35:16;;;;;;;0.00;0.00;;;37.90;26.20;;;;;;5097498;28;20032;-75
2022/07/17 03:37:44;;;;;;;0.00;0.00;;;37.90;25.50;;;;;;5116420;28;20020;-74
2022/07/17 03:40:11;;;;;;;9.30;8.85;;;37.60;26.70;;;;;;5095931;28;20104;-75
2022/07/17 03:42:37;;;;;;;2.20;0.85;;;38.30;24.70;;;;;;5110526;28;20374;-75
2022/07/17 03:45:04;;;;;;;0.00;0.00;;;38.60;24.30;;;;;;5077194;28;20024;-75
2022/07/17 03:47:30;;;;;;;175.52;12.05;;;38.20;25.00;;;;;;5105401;28;20019;-74
2022/07/17 03:49:56;;;;;;;0.03;0.03;;;37.50;26.50;;;;;;5110008;28;20031;-75
2022/07/17 03:52:22;;;;;;;1.25;0.55;;;36.90;27.50;;;;;;5099470;28;20070;-74
2022/07/17 03:54:48;;;;;;;0.00;0.00;;;36.80;27.40;;;;;;5106835;28;20102;-75
2022/07/17 03:57:14;;;;;;;0.35;0.35;;;35.90;27.20;;;;;;5104476;28;20028;-75
2022/07/17 03:59:40;;;;;;;0.43;0.43;;;35.10;28.20;;;;;;5108028;28;20027;-75
2022/07/17 04:02:06;;;;;;;0.10;0.10;;;34.50;28.30;;;;;;5103199;28;20030;-75
2022/07/17 04:04:33;;;;;;;0.00;0.00;;;33.90;29.10;;;;;;5105413;28;20180;-75
2022/07/17 04:06:59;;;;;;;0.00;0.00;;;34.00;29.50;;;;;;5087106;28;20024;-75
2022/07/17 04:09:25;;;;;;;0.00;0.00;;;33.90;29.30;;;;;;5077169;28;20028;-75
2022/07/17 04:11:51;;;;;;;0.00;0.00;;;34.60;28.90;;;;;;5095309;28;20378;-75
2022/07/17 04:14:17;;;;;;;0.60;0.45;;;34.80;28.50;;;;;;5095493;28;20036;-75
2022/07/17 04:16:43;;;;;;;0.00;0.00;;;34.50;28.90;;;;;;5095360;28;20028;-74
2022/07/17 04:19:10;;;;;;;0.00;0.00;;;34.30;30.00;;;;;;5095612;28;20074;-74
2022/07/17 04:21:36;;;;;;;0.08;0.08;;;33.90;28.70;;;;;;5095151;28;20063;-74
2022/07/17 04:24:02;;;;;;;0.00;0.00;;;33.50;29.50;;;;;;5077011;28;20052;-74
2022/07/17 04:26:28;;;;;;;0.00;0.00;;;33.40;28.30;;;;;;5099024;28;20035;-73
2022/07/17 04:28:54;;;;;;;0.00;0.00;;;33.20;28.90;;;;;;5081717;28;20032;-73
2022/07/17 04:31:20;;;;;;;0.55;0.40;;;33.30;28.50;;;;;;5103023;28;20526;-73
2022/07/17 04:33:46;;;;;;;0.00;0.00;;;32.90;28.80;;;;;;5101176;28;20490;-73
2022/07/17 04:36:12;;;;;;;0.00;0.00;;;32.70;28.80;;;;;;5095740;28;20023;-75
2022/07/17 04:38:38;;;;;;;0.00;0.00;;;32.70;28.80;;;;;;5087592;28;20089;-75
2022/07/17 04:41:04;;;;;;;0.00;0.00;;;32.90;29.30;;;;;;5109174;28;20031;-73
2022/07/17 04:43:30;;;;;;;2.55;2.40;;;33.30;29.20;;;;;;5099530;28;21115;-73
2022/07/17 04:45:56;;;;;;;1.85;1.75;;;33.70;28.60;;;;;;5100745;28;20020;-73
2022/07/17 04:48:22;;;;;;;0.00;0.00;;;33.30;29.00;;;;;;5105340;28;20073;-73
2022/07/17 04:50:48;;;;;;;0.00;0.00;;;32.90;29.20;;;;;;5076672;28;20359;-74
2022/07/17 04:53:14;;;;;;;0.17;0.17;;;33.30;29.20;;;;;;5084283;28;20176;-74
2022/07/17 04:55:40;;;;;;;0.00;0.00;;;33.50;28.60;;;;;;5111258;28;20485;-74
2022/07/17 04:58:06;;;;;;;0.00;0.00;;;33.50;28.20;;;;;;5104021;28;20062;-75
2022/07/17 05:00:32;;;;;;;0.00;0.00;;;33.70;28.30;;;;;;5102549;28;20076;-74
2022/07/17 05:02:58;;;;;;;0.00;0.00;;;33.80;28.70;;;;;;5089797;28;20119;-74
2022/07/17 05:05:24;;;;;;;0.00;0.00;;;33.70;29.40;;;;;;5095725;28;20541;-74
2022/07/17 05:07:50;;;;;;;0.00;0.00;;;33.40;29.10;;;;;;5109847;28;20023;-74
2022/07/17 05:10:16;;;;;;;0.00;0.00;;;33.50;28.60;;;;;;5100559;28;20077;-75
2022/07/17 05:12:42;;;;;;;0.00;0.00;;;33.70;28.60;;;;;;5096824;28;20031;-76
2022/07/17 05:15:08;;;;;;;0.32;0.32;;;33.90;28.10;;;;;;5093806;28;20426;-75
2022/07/17 05:17:35;;;;;;;0.00;0.00;;;33.80;28.70;;;;;;5110600;28;20088;-76
2022/07/17 05:20:01;;;;;;;0.00;0.00;;;33.70;28.40;;;;;;5084414;28;20095;-75
2022/07/17 05:22:27;;;;;;;0.00;0.00;;;33.80;28.70;;;;;;5092383;28;20498;-74
2022/07/17 05:24:53;;;;;;;0.10;0.10;;;33.70;29.00;;;;;;5100799;28;20023;-75
2022/07/17 05:27:19;;;;;;;0.00;0.00;;;33.80;28.40;;;;;;5101073;28;20030;-75
2022/07/17 05:29:45;;;;;;;0.05;0.05;;;33.90;27.90;;;;;;5108038;28;20431;-74
2022/07/17 05:32:11;;;;;;;5.95;0.57;;;33.90;28.50;;;;;;5107063;28;20083;-74
2022/07/17 05:34:37;;;;;;;0.00;0.00;;;33.70;28.60;;;;;;5091027;28;20554;-74
2022/07/17 05:37:03;;;;;;;0.30;0.13;;;33.80;28.10;;;;;;5108925;28;20072;-74
2022/07/17 05:39:29;;;;;;;12.52;3.90;;;34.00;28.70;;;;;;5106646;28;20055;-74
2022/07/17 05:41:55;;;;;;;0.10;0.10;;;33.70;28.70;;;;;;5110592;28;20028;-74
2022/07/17 05:44:21;;;;;;;1.20;0.88;;;33.80;26.70;;;;;;5089727;28;20020;-74
2022/07/17 05:46:47;;;;;;;1.08;0.98;;;34.00;28.20;;;;;;5095250;28;20076;-74
2022/07/17 05:49:13;;;;;;;0.00;0.00;;;33.80;27.20;;;;;;5113575;28;20094;-75
2022/07/17 05:51:39;;;;;;;0.00;0.00;;;33.70;26.50;;;;;;5113355;28;20087;-73
2022/07/17 05:54:04;;;;;;;0.00;0.00;;;33.80;26.30;;;;;;5103276;28;20028;-73
2022/07/17 05:56:31;;;;;;;0.10;0.10;;;33.90;26.50;;;;;;5083950;28;20024;-73
2022/07/17 05:58:57;;;;;;;0.00;0.00;;;33.90;26.40;;;;;;5085669;28;20032;-75
2022/07/17 06:01:22;;;;;;;1.02;1.02;;;34.00;26.10;;;;;;5097765;28;20043;-75
2022/07/17 06:03:49;;;;;;;0.00;0.00;;;34.00;25.80;;;;;;5103483;27;20549;-73
2022/07/17 06:06:15;;;;;;;0.00;0.00;;;34.00;25.80;;;;;;5099083;27;20026;-74
2022/07/17 06:08:41;;;;;;;0.00;0.00;;;34.10;26.40;;;;;;5114008;28;20110;-74
2022/07/17 06:11:07;;;;;;;0.00;0.00;;;33.80;25.80;;;;;;5113540;28;20055;-74
2022/07/17 06:13:33;;;;;;;0.00;0.00;;;33.70;26.30;;;;;;5113592;28;20113;-74
2022/07/17 06:15:59;;;;;;;0.35;0.35;;;33.80;26.50;;;;;;5113536;28;20469;-74
2022/07/17 06:18:26;;;;;;;0.35;0.35;;;33.90;25.40;;;;;;5113449;28;20028;-74
2022/07/17 06:20:52;;;;;;;0.00;0.00;;;34.00;24.10;;;;;;5113403;28;20402;-74
2022/07/17 06:23:18;;;;;;;2.15;1.95;;;34.00;25.80;;;;;;5106201;28;20540;-74
2022/07/17 06:25:44;;;;;;;1.20;1.13;;;34.10;27.10;;;;;;5092914;28;20164;-74
2022/07/17 06:28:10;;;;;;;0.55;0.40;;;34.20;27.40;;;;;;5092993;28;20124;-74
2022/07/17 06:30:37;;;;;;;1.20;0.65;;;34.30;26.60;;;;;;5087993;28;20559;-74
2022/07/17 06:33:03;;;;;;;0.00;0.00;;;34.10;27.20;;;;;;5113609;28;20050;-73
2022/07/17 06:35:30;;;;;;;0.38;0.17;;;34.20;27.50;;;;;;5094961;28;20015;-74
2022/07/17 06:37:57;;;;;;;0.00;0.00;;;34.20;26.80;;;;;;5113271;28;20016;-74
2022/07/17 06:40:23;;;;;;;1.02;0.45;;;34.20;27.10;;;;;;5094767;28;20044;-74
2022/07/17 06:42:49;;;;;;;0.00;0.00;;;34.00;26.60;;;;;;5094931;28;20467;-74
2022/07/17 06:45:15;;;;;;;0.00;0.00;;;33.90;27.10;;;;;;5094738;28;20028;-74
2022/07/17 06:47:41;;;;;;;0.52;0.52;;;34.10;26.80;;;;;;5113099;28;20024;-73
2022/07/17 06:50:08;;;;;;;1.35;1.35;;;34.30;27.30;;;;;;5113141;28;20023;-74
2022/07/17 06:52:34;;;;;;;0.80;0.15;;;34.40;25.80;;;;;;5116445;28;20482;-73
2022/07/17 06:55:00;;;;;;;1.42;0.88;;;34.10;25.50;;;;;;5084615;28;20409;-74
2022/07/17 06:57:27;;;;;;;0.32;0.30;;;34.20;24.50;;;;;;5098806;28;20496;-74
2022/07/17 06:59:53;;;;;;;0.40;0.40;;;34.30;25.90;;;;;;5117019;28;20084;-74
2022/07/17 07:02:19;;;;;;;0.05;0.05;;;34.10;26.30;;;;;;5104593;28;20030;-73
2022/07/17 07:04:45;;;;;;;1.55;1.25;;;34.30;26.30;;;;;;5099341;28;20024;-74
2022/07/17 07:07:11;;;;;;;0.52;0.45;;;34.20;26.30;;;;;;5096577;28;20027;-73
2022/07/17 07:09:37;;;;;;;0.00;0.00;;;34.30;26.00;;;;;;5112417;28;20077;-73
2022/07/17 07:12:04;;;;;;;0.00;0.00;;;34.20;25.40;;;;;;5117036;28;20094;-73
2022/07/17 07:14:30;;;;;;;0.00;0.00;;;34.30;25.00;;;;;;5117007;28;20062;-74
2022/07/17 07:16:56;;;;;;;0.20;0.10;;;34.40;24.40;;;;;;5098666;28;20023;-76
2022/07/17 07:19:22;;;;;;;0.00;0.00;;;34.40;24.00;;;;;;5115190;28;20465;-73
2022/07/17 07:21:48;;;;;;;3.72;2.17;;;34.50;23.40;;;;;;5080304;28;20393;-74
2022/07/17 07:24:14;;;;;;;0.00;0.00;;;34.40;23.50;;;;;;5078178;28;20493;-74
2022/07/17 07:26:40;;;;;;;0.00;0.00;;;34.30;23.60;;;;;;5093823;28;20473;-74
2022/07/17 07:29:06;;;;;;;0.00;0.00;;;34.50;23.50;;;;;;5085581;28;20099;-74
2022/07/17 07:31:32;;;;;;;0.05;0.05;;;34.60;23.30;;;;;;5077811;28;20155;-74
2022/07/17 07:33:58;;;;;;;0.00;0.00;;;35.00;23.10;;;;;;5097603;28;20024;-74
2022/07/17 07:36:24;;;;;;;0.30;0.25;;;35.30;23.00;;;;;;5098427;28;20028;-74
2022/07/17 07:38:50;;;;;;;1.08;0.95;;;35.40;23.20;;;;;;5117362;27;20043;-75
2022/07/17 07:41:16;;;;;;;0.75;0.55;;;34.90;22.90;;;;;;5093936;28;20118;-74
2022/07/17 07:43:42;;;;;;;0.05;0.05;;;34.70;22.50;;;;;;5085647;27;20537;-74
2022/07/17 07:46:08;;;;;;;0.00;0.00;;;35.00;22.40;;;;;;5108322;27;20043;-74
2022/07/17 07:48:34;;;;;;;1.60;1.50;;;35.30;23.10;;;;;;5106944;28;20027;-74
2022/07/17 07:51:01;;;;;;;1.30;1.30;;;35.00;22.40;;;;;;5112260;28;20020;-75
2022/07/17 07:53:27;;;;;;;0.00;0.00;;;35.00;22.20;;;;;;5122535;27;20085;-76
2022/07/17 07:55:53;;;;;;;1.33;1.33;;;35.10;22.70;;;;;;5098829;28;20027;-76
2022/07/17 07:58:19;;;;;;;0.08;0.08;;;35.40;22.90;;;;;;5113281;28;20374;-75
2022/07/17 08:00:45;;;;;;;1.65;1.55;;;35.80;23.70;;;;;;5111208;28;20578;-75
2022/07/17 08:03:12;;;;;;;0.10;0.10;;;35.90;24.20;;;;;;5098983;28;21628;-75
2022/07/17 08:05:38;;;;;;;1.10;1.05;;;35.60;24.90;;;;;;5103502;28;20035;-75
2022/07/17 08:08:05;;;;;;;0.00;0.00;;;35.00;24.90;;;;;;5110683;28;20027;-74
2022/07/17 08:10:31;;;;;;;0.00;0.00;;;35.20;25.30;;;;;;5107216;28;20027;-74
2022/07/17 08:12:57;;;;;;;4.72;3.28;;;35.50;25.30;;;;;;5096839;28;20099;-74
2022/07/17 08:15:23;;;;;;;4.47;2.85;;;35.50;25.00;;;;;;5111796;27;20048;-74
2022/07/17 08:17:51;;;;;;;1.85;1.75;;;35.40;24.90;;;;;;5115023;28;20027;-74
2022/07/17 08:20:18;;;;;;;0.00;0.00;;;35.30;24.50;;;;;;5108176;28;20056;-74
2022/07/17 08:22:45;;;;;;;0.00;0.00;;;35.40;24.60;;;;;;5097746;28;20024;-74
2022/07/17 08:25:12;;;;;;;0.22;0.22;;;35.50;24.00;;;;;;5094990;28;20462;-75
2022/07/17 08:27:40;;;;;;;0.10;0.10;;;35.40;24.40;;;;;;5083017;28;20036;-75
2022/07/17 08:30:08;;;;;;;0.10;0.10;;;35.60;24.70;;;;;;5092459;28;20049;-75
2022/07/17 08:32:34;;;;;;;0.00;0.00;;;35.50;23.10;;;;;;5109647;28;20012;-75
2022/07/17 08:35:00;;;;;;;0.40;0.40;;;35.40;23.60;;;;;;5107030;28;20051;-78
2022/07/17 08:37:27;;;;;;;0.95;0.60;;;35.80;23.50;;;;;;5111986;28;20465;-75
2022/07/17 08:39:53;;;;;;;0.17;0.17;;;35.90;22.30;;;;;;5096655;28;20051;-74
2022/07/17 08:42:19;;;;;;;0.10;0.00;;;35.80;23.50;;;;;;5066008;28;20063;-74
2022/07/17 08:44:46;;;;;;;0.00;0.00;;;35.60;22.40;;;;;;5081285;28;20051;-73
2022/07/17 08:47:13;;;;;;;6.32;1.67;;;35.70;22.90;;;;;;5097865;28;20083;-74
2022/07/17 08:49:46;;;;;;;0.10;0.10;;;36.10;22.30;;;;;;5117948;28;20045;-75
2022/07/17 08:52:13;;;;;;;0.00;0.00;;;36.30;22.70;;;;;;5100079;28;20417;-75
2022/07/17 08:54:40;;;;;;;1.00;0.90;;;36.30;22.40;;;;;;5065638;28;20051;-76
2022/07/17 08:57:06;;;;;;;0.00;0.00;;;36.10;22.30;;;;;;5065968;28;20198;-76
2022/07/17 08:59:32;;;;;;;0.10;0.10;;;35.90;22.70;;;;;;5057373;28;20040;-75
2022/07/17 09:01:59;;;;;;;0.00;0.00;;;35.90;23.20;;;;;;5063541;28;20032;-76
2022/07/17 09:04:25;;;;;;;0.20;0.20;;;35.90;23.40;;;;;;5073579;28;20119;-74
2022/07/17 09:07:05;;;;;;;0.00;0.00;;;35.80;23.20;;;;;;5099586;28;20039;-77
2022/07/17 09:09:36;;;;;;;0.00;0.00;;;36.00;23.30;;;;;;5090028;28;20090;-76
2022/07/17 09:12:04;;;;;;;0.00;0.00;;;36.00;23.30;;;;;;5074433;28;20021;-76
2022/07/17 09:14:41;;;;;;;0.10;0.10;;;36.10;23.30;;;;;;5055183;28;20463;-76
2022/07/17 09:17:11;;;;;;;0.00;0.00;;;36.20;22.80;;;;;;5073988;28;20075;-76
2022/07/17 09:19:41;;;;;;;0.00;0.00;;;36.10;22.80;;;;;;5073792;28;20344;-76
2022/07/17 09:22:18;;;;;;;0.65;0.65;;;35.80;23.20;;;;;;5074017;28;20099;-77
2022/07/17 09:24:52;;;;;;;0.43;0.43;;;35.70;23.10;;;;;;5074031;28;20025;-76
2022/07/17 09:27:24;;;;;;;0.00;0.00;;;35.80;23.70;;;;;;5076694;28;20032;-76
2022/07/17 09:30:09;;;;;;;0.25;0.10;;;36.00;23.40;;;;;;5081348;28;20060;-74
2022/07/17 09:32:38;;;;;;;1.98;1.85;;;36.20;23.40;;;;;;5093695;28;20344;-73
2022/07/17 09:35:07;;;;;;;0.00;0.00;;;36.20;23.30;;;;;;5066910;28;20058;-73
2022/07/17 09:37:34;;;;;;;0.00;0.00;;;35.80;22.90;;;;;;5098254;28;20027;-73
2022/07/17 09:40:01;;;;;;;0.08;0.08;;;35.90;23.10;;;;;;5101264;27;20112;-73
2022/07/17 09:42:33;;;;;;;13.98;2.10;;;36.10;23.20;;;;;;5106983;27;20019;-73
2022/07/17 09:45:08;;;;;;;0.52;0.47;;;35.70;23.60;;;;;;5106808;27;20028;-77
2022/07/17 09:47:37;;;;;;;5.15;4.78;;;35.50;23.60;;;;;;5098256;28;20024;-74
2022/07/17 09:50:05;;;;;;;0.00;0.00;;;35.80;24.30;;;;;;5083436;28;20016;-74
2022/07/17 09:52:35;;;;;;;0.00;0.00;;;36.00;23.90;;;;;;5110842;27;20019;-74
2022/07/17 09:55:02;;;;;;;2.67;1.48;;;36.10;23.50;;;;;;5104649;27;20103;-75
2022/07/17 09:57:31;;;;;;;0.93;0.47;;;36.10;24.00;;;;;;5121867;27;20028;-75
2022/07/17 10:00:07;;;;;;;0.00;0.00;;;36.00;24.00;;;;;;5103815;27;20058;-75
2022/07/17 10:02:33;;;;;;;0.30;0.10;;;35.90;24.00;;;;;;5084433;28;20386;-75
2022/07/17 10:05:00;;;;;;;0.00;0.00;;;35.70;23.90;;;;;;5093587;28;20020;-76
2022/07/17 10:07:26;;;;;;;0.00;0.00;;;35.80;24.10;;;;;;5093264;28;20392;-75
2022/07/17 10:09:53;;;;;;;0.00;0.00;;;35.80;24.10;;;;;;5093253;28;20099;-75
2022/07/17 10:12:19;;;;;;;0.00;0.00;;;35.90;24.20;;;;;;5093400;28;20035;-75
2022/07/17 10:14:50;;;;;;;0.65;0.20;;;35.90;24.10;;;;;;5075107;28;20077;-75
2022/07/17 10:17:21;;;;;;;0.60;0.60;;;36.10;23.90;;;;;;5075014;28;20387;-75
2022/07/17 10:19:49;;;;;;;0.10;0.10;;;36.00;24.60;;;;;;5075020;28;20028;-76
2022/07/17 10:22:15;;;;;;;0.28;0.10;;;36.00;24.70;;;;;;5074836;28;20024;-77
2022/07/17 10:24:56;;;;;;;0.00;0.00;;;36.00;24.40;;;;;;5092983;28;20107;-80
2022/07/17 10:27:27;;;;;;;0.17;0.17;;;35.90;24.30;;;;;;5095319;28;20481;-79
2022/07/17 10:30:09;;;;;;;0.20;0.20;;;36.00;23.80;;;;;;5088556;28;20016;-78
2022/07/17 10:32:35;;;;;;;0.00;0.00;;;36.00;23.30;;;;;;5093567;28;20023;-78
2022/07/17 10:35:05;;;;;;;0.43;0.43;;;36.00;23.40;;;;;;5095501;28;20020;-79
2022/07/17 10:37:37;;;;;;;0.00;0.00;;;36.00;23.40;;;;;;5075874;28;20056;-78
2022/07/17 10:40:29;;;;;;;0.35;0.35;;;36.10;23.10;;;;;;5111394;28;20054;-78
2022/07/17 10:42:59;;;;;;;0.00;0.00;;;36.10;23.50;;;;;;5117092;28;20032;-75
2022/07/17 10:45:34;;;;;;;0.00;0.00;;;36.00;23.30;;;;;;5104243;28;20046;-77
2022/07/17 10:48:08;;;;;;;0.00;0.00;;;35.80;23.30;;;;;;5108022;28;20019;-75
2022/07/17 10:50:46;;;;;;;0.00;0.00;;;35.90;23.40;;;;;;5093066;28;20482;-75
2022/07/17 10:53:26;;;;;;;0.00;0.00;;;35.70;23.80;;;;;;5112987;28;20020;-76
2022/07/17 10:56:01;;;;;;;0.00;0.00;;;35.70;24.20;;;;;;5109298;28;20011;-75
2022/07/17 10:58:37;;;;;;;0.15;0.15;;;35.80;23.80;;;;;;5094802;28;20046;-75
2022/07/17 11:01:06;;;;;;;0.00;0.00;;;35.80;23.10;;;;;;5094666;28;20020;-75
2022/07/17 11:03:38;;;;;;;1.08;0.10;;;36.00;23.10;;;;;;5118822;28;20023;-75
2022/07/17 11:06:09;;;;;;;0.00;0.00;;;36.00;22.70;;;;;;5083397;28;20031;-77
2022/07/17 11:08:43;;;;;;;0.10;0.03;;;35.90;22.60;;;;;;5095054;28;20012;-77
2022/07/17 11:11:10;;;;;;;0.00;0.00;;;35.90;22.20;;;;;;5089577;28;20047;-77
2022/07/17 11:13:36;;;;;;;0.00;0.00;;;35.90;22.20;;;;;;5112914;28;20024;-76
2022/07/17 11:16:02;;;;;;;0.00;0.00;;;35.80;22.20;;;;;;5103474;28;20034;-76
2022/07/17 11:18:28;;;;;;;0.00;0.00;;;35.70;22.20;;;;;;5112098;28;20494;-76
2022/07/17 11:20:56;;;;;;;0.00;0.00;;;35.70;22.60;;;;;;5098150;28;20036;-76
2022/07/17 11:23:24;;;;;;;0.00;0.00;;;35.60;22.90;;;;;;5092463;28;20111;-76
2022/07/17 11:26:05;;;;;;;0.00;0.00;;;35.60;22.70;;;;;;5092598;28;20048;-76
2022/07/17 11:28:33;;;;;;;0.00;0.00;;;35.80;22.60;;;;;;5103440;28;20048;-77
2022/07/17 11:31:01;;;;;;;0.00;0.00;;;36.00;22.60;;;;;;5092468;28;20031;-78
2022/07/17 11:33:27;;;;;;;0.00;0.00;;;36.00;22.50;;;;;;5100679;28;20381;-78
2022/07/17 11:35:56;;;;;;;0.00;0.00;;;36.00;22.40;;;;;;5111473;28;20024;-77
2022/07/17 11:38:30;;;;;;;0.30;0.30;;;36.00;22.70;;;;;;5113944;28;20051;-77
2022/07/17 11:40:56;;;;;;;0.00;0.00;;;36.00;22.40;;;;;;5115496;28;20023;-77
2022/07/17 11:43:23;;;;;;;0.00;0.00;;;36.00;22.60;;;;;;5116574;28;20081;-77
2022/07/17 11:45:49;;;;;;;0.17;0.17;;;36.00;22.60;;;;;;5106719;28;20020;-78
2022/07/17 11:48:15;;;;;;;0.00;0.00;;;35.90;23.30;;;;;;5095949;28;20017;-75
2022/07/17 11:50:52;;;;;;;0.00;0.00;;;35.90;22.70;;;;;;5095948;28;20028;-76
2022/07/17 11:53:18;;;;;;;0.00;0.00;;;36.00;22.80;;;;;;5101108;28;20107;-76
2022/07/17 11:55:45;;;;;;;0.00;0.00;;;35.90;22.80;;;;;;5109338;28;20118;-76
2022/07/17 11:58:12;;;;;;;0.08;0.08;;;35.90;22.30;;;;;;5115524;28;20038;-76
2022/07/17 12:00:38;;;;;;;0.00;0.00;;;36.10;22.60;;;;;;5110083;27;20505;-75
2022/07/17 12:03:06;;;;;;;2.55;2.42;;;35.80;22.70;;;;;;5081506;28;20580;-76
2022/07/17 12:05:34;;;;;;;1.77;1.75;;;35.70;22.90;;;;;;5081923;28;20019;-75
2022/07/17 12:08:01;;;;;;;0.13;0.10;;;35.60;23.00;;;;;;5097001;28;20420;-75
2022/07/17 12:10:29;;;;;;;0.00;0.00;;;35.60;23.00;;;;;;5110986;28;20015;-75
2022/07/17 12:13:04;;;;;;;0.13;0.13;;;35.50;22.70;;;;;;5111158;28;20031;-76
2022/07/17 12:15:39;;;;;;;0.00;0.00;;;35.50;22.80;;;;;;5099791;28;20032;-76
2022/07/17 12:18:09;;;;;;;0.10;0.10;;;35.50;22.80;;;;;;5100953;28;20069;-75
2022/07/17 12:20:42;;;;;;;0.00;0.00;;;35.50;22.60;;;;;;5111845;27;20090;-75
2022/07/17 12:23:09;;;;;;;0.10;0.10;;;35.50;22.60;;;;;;5099043;28;20051;-75
2022/07/17 12:25:35;;;;;;;0.00;0.00;;;35.50;23.30;;;;;;5097334;28;20023;-75
2022/07/17 12:28:01;;;;;;;0.00;0.00;;;35.30;22.70;;;;;;5115487;28;20065;-75
2022/07/17 12:30:28;;;;;;;0.00;0.00;;;35.40;23.60;;;;;;5115147;28;20508;-75
2022/07/17 12:32:54;;;;;;;0.00;0.00;;;35.40;23.30;;;;;;5114236;28;20079;-75
2022/07/17 12:35:20;;;;;;;0.00;0.00;;;35.50;23.00;;;;;;5108762;28;20032;-74
2022/07/17 12:37:46;;;;;;;0.00;0.00;;;35.40;23.70;;;;;;5091629;28;20020;-77
2022/07/17 12:40:12;;;;;;;0.00;0.00;;;35.40;23.30;;;;;;5113814;28;20044;-77
2022/07/17 12:42:38;;;;;;;0.00;0.00;;;35.50;22.50;;;;;;5096857;28;20417;-78
2022/07/17 12:45:05;;;;;;;0.00;0.00;;;35.50;22.50;;;;;;5107442;28;20020;-78